Latest Weather Observations for Parafield

IDS60801

Issued at 6:51 am CDT Tuesday 13 November 2018 (issued every 10 minutes, with the page automatically refreshed every 10 minutes)

About weather observations | Map of weather stations | Latest weather observations for SA | Other Formats
Station Details ID: 023013 Name: PARAFIELD AIRPORT Lat: -34.80 Lon: 138.63 Height: 9.5 m
Data from the previous 72 hours. | See also: Recent months at Parafield
Date/Time
CDT
Temp
°C
App
Temp
°C
Dew
Point
°C
Rel
Hum
%
Delta-T
°C
Wind Press
QNH
hPa
Press
MSL
hPa
Rain since
9am
mm
Dir  Spd
km/h
Gust
km/h
Spd
kts
Gust
kts
13/06:30am 18.1 19.0 12.8 71 3.0 CALM 0 0 0 0 1008.6 1008.6 0.0
13/06:00am 19.1 18.8 12.6 66 3.6 WSW 6 6 3 3 1008.7 1008.7 0.0
13/05:30am 20.3 19.7 12.3 60 4.5 S 7 11 4 6 1008.3 1008.3 0.0
13/05:00am 21.7 19.5 12.0 54 5.4 SSW 15 20 8 11 1008.4 1008.4 0.0
13/04:30am 22.4 19.1 11.5 50 6.1 WSW 20 32 11 17 1008.1 1008.1 0.0
13/04:00am 22.2 19.6 7.6 39 7.6 N 11 15 6 8 1006.6 1006.6 0.0
13/03:30am 23.0 20.5 8.3 39 7.8 NE 11 13 6 7 1006.7 1006.7 0.0
13/03:00am 23.4 21.1 7.5 36 8.3 NW 9 17 5 9 1007.1 1007.1 0.0
13/02:30am 24.1 23.1 5.5 30 9.4 CALM 0 0 0 0 1006.9 1006.9 0.0
13/02:00am 25.3 22.1 5.0 27 10.3 NE 11 15 6 8 1007.0 1007.0 0.0
13/01:30am 25.3 21.9 6.0 29 10.0 NE 13 17 7 9 1007.4 1007.4 0.0
13/01:00am 23.9 22.4 9.1 39 8.0 NE 7 11 4 6 1008.1 1008.1 0.0
13/12:30am 23.1 20.9 9.5 42 7.4 NE 11 15 6 8 1008.6 1008.6 0.0
13/12:00am 23.3 21.2 11.0 46 6.9 NE 13 15 7 8 1009.2 1009.2 0.0
 
Date/Time
CDT
Temp
°C
App
Temp
°C
Dew
Point
°C
Rel
Hum
%
Delta-T
°C
Wind Press
QNH
hPa
Press
MSL
hPa
Rain since
9am
mm
Dir  Spd
km/h
Gust
km/h
Spd
kts
Gust
kts
12/11:30pm 23.3 21.9 11.0 46 6.9 NE 9 13 5 7 1009.8 1009.8 0.0
12/11:00pm 23.3 22.9 11.0 46 6.8 ESE 4 7 2 4 1010.0 1010.0 0.0
12/10:30pm 24.0 22.7 9.9 41 7.7 NE 7 13 4 7 1010.1 1010.1 0.0
12/10:00pm 23.6 22.3 11.3 46 6.9 ESE 9 17 5 9 1010.2 1010.2 0.0
12/09:30pm 24.3 21.5 11.3 44 7.3 SE 17 24 9 13 1010.1 1010.1 0.0
12/09:00pm 24.0 21.2 12.6 49 6.5 SSE 19 30 10 16 1010.6 1010.6 0.0
12/08:30pm 22.4 21.9 13.7 58 5.1 SSE 9 11 5 6 1011.4 1011.4 0.0
12/08:00pm 22.8 22.3 13.8 57 5.2 SSW 9 13 5 7 1011.5 1011.5 0.0
12/07:30pm 23.1 22.2 13.8 55 5.4 SSW 11 17 6 9 1011.6 1011.6 0.0
12/07:00pm 23.1 20.8 14.1 57 5.3 SSW 19 28 10 15 1011.5 1011.5 0.0
12/06:30pm 23.3 20.1 14.3 57 5.3 SW 24 32 13 17 1011.3 1011.3 0.0
12/06:00pm 23.8 20.0 13.6 52 6.0 SW 26 35 14 19 1010.8 1010.8 0.0
12/05:30pm 24.5 19.9 13.4 50 6.5 SW 30 41 16 22 1010.4 1010.4 0.0
12/05:00pm 25.6 20.2 12.1 43 7.7 SSW 32 44 17 24 1010.2 1010.2 0.0
12/04:33pm 27.8 22.3 9.1 31 10.3 W 28 52 15 28 1009.6 1009.6 0.0
12/04:30pm 33.0 26.3 -4.0 9 16.9 W 22 28 12 15 1009.2 1009.2 0.0
12/04:00pm 34.2 26.7 -4.7 8 17.7 WNW 26 35 14 19 1009.1 1009.1 0.0
12/03:30pm 35.3 28.3 -3.9 8 18.2 W 24 37 13 20 1009.3 1009.3 0.0
12/03:00pm 34.8 26.9 -4.3 8 18.0 WNW 28 37 15 20 1009.6 1009.6 0.0
12/02:30pm 34.4 27.5 -3.0 9 17.5 WNW 24 33 13 18 1009.9 1009.9 0.0
12/02:00pm 34.6 27.3 -2.9 9 17.6 WNW 26 37 14 20 1010.4 1010.4 0.0
12/01:30pm 32.8 25.1 -2.8 10 16.5 NW 28 39 15 21 1010.9 1010.9 0.0
12/01:00pm 35.1 27.6 -4.1 8 18.1 NNW 26 39 14 21 1011.0 1011.0 0.0
12/12:30pm 34.3 25.9 -6.4 7 18.0 NNW 30 41 16 22 1011.5 1011.5 0.0
12/12:00pm 33.1 24.7 -5.5 8 17.2 NW 30 39 16 21 1012.0 1012.0 0.0
12/11:30am 32.9 24.5 -5.7 8 17.1 NNW 30 48 16 26 1012.3 1012.3 0.0
12/11:00am 33.0 25.4 -5.6 8 17.1 NNW 26 35 14 19 1012.5 1012.5 0.0
12/10:30am 32.4 25.3 -4.5 9 16.6 NNE 24 30 13 16 1012.5 1012.5 0.0
12/10:00am 30.4 22.9 -4.6 10 15.5 NNE 26 35 14 19 1012.8 1012.8 0.0
12/09:30am 29.8 23.1 -3.8 11 15.0 NNE 22 32 12 17 1012.9 1012.9 0.0
12/09:00am 29.2 22.1 -4.3 11 14.7 NNE 24 32 13 17 1012.8 1012.8 0.0
12/08:30am 28.9 22.5 -4.5 11 14.6 NNE 20 30 11 16 1012.8 1012.8 0.0
12/08:00am 27.5 20.9 -3.3 13 13.6 NE 22 28 12 15 1012.4 1012.4 0.0
12/07:30am 25.6 19.4 -2.9 15 12.5 NE 20 28 11 15 1012.3 1012.3 0.0
12/07:00am 25.3 20.0 -3.2 15 12.4 NE 15 19 8 10 1012.3 1012.3 0.0
12/06:30am 24.5 19.3 -2.9 16 11.9 NE 15 19 8 10 1012.1 1012.1 0.0
12/06:00am 25.2 19.4 -4.2 14 12.5 NNE 17 24 9 13 1011.9 1011.9 0.0
12/05:30am 25.1 19.3 -4.2 14 12.5 NNE 17 20 9 11 1011.5 1011.5 0.0
12/05:00am 25.4 19.7 -4.0 14 12.6 NNE 17 22 9 12 1011.7 1011.7 0.0
12/04:30am 25.6 19.9 -3.8 14 12.7 NNE 17 24 9 13 1011.7 1011.7 0.0
12/04:00am 25.3 19.2 -2.3 16 12.2 NE 20 28 11 15 1011.7 1011.7 0.0
12/03:30am 24.6 18.6 -1.3 18 11.6 NE 20 28 11 15 1011.7 1011.7 0.0
12/03:00am 24.8 19.1 -1.1 18 11.7 NE 19 26 10 14 1011.6 1011.6 0.0
12/02:30am 24.2 18.7 0.5 21 10.9 ENE 19 28 10 15 1012.0 1012.0 0.0
12/02:00am 24.0 18.7 1.6 23 10.5 ENE 19 26 10 14 1012.3 1012.3 0.0
12/01:30am 23.7 19.2 2.0 24 10.3 ENE 15 22 8 12 1012.8 1012.8 0.0
12/01:00am 23.8 18.5 3.2 26 10.0 E 20 26 11 14 1013.4 1013.4 0.0
12/12:30am 24.2 19.8 2.9 25 10.3 E 15 22 8 12 1013.7 1013.7 0.0
12/12:00am 24.4 19.2 2.5 24 10.5 E 19 26 10 14 1013.9 1013.9 0.0
 
Date/Time
CDT
Temp
°C
App
Temp
°C
Dew
Point
°C
Rel
Hum
%
Delta-T
°C
Wind Press
QNH
hPa
Press
MSL
hPa
Rain since
9am
mm
Dir  Spd
km/h
Gust
km/h
Spd
kts
Gust
kts
11/11:30pm 23.7 20.6 3.6 27 9.8 NNE 9 17 5 9 1014.4 1014.4 0.0
11/11:00pm 24.1 20.9 2.9 25 10.2 E 9 20 5 11 1014.7 1014.7 0.0
11/10:30pm 24.6 20.6 2.7 24 10.6 SE 13 17 7 9 1014.8 1014.8 0.0
11/10:00pm 25.4 20.5 4.0 25 10.6 ESE 19 32 10 17 1014.8 1014.8 0.0
11/09:30pm 25.6 21.3 5.2 27 10.4 SE 17 22 9 12 1014.7 1014.7 0.0
11/09:00pm 25.6 22.2 5.8 28 10.2 ESE 13 19 7 10 1014.5 1014.5 0.0
11/08:30pm 25.8 22.3 5.4 27 10.4 ESE 13 17 7 9 1014.4 1014.4 0.0
11/08:00pm 24.1 19.8 1.1 22 10.7 S 13 17 7 9 1013.9 1013.9 0.0
11/07:30pm 26.4 22.0 -2.3 15 12.8 SW 11 13 6 7 1013.5 1013.5 0.0
11/07:00pm 29.3 25.6 -3.0 12 14.6 SW 7 11 4 6 1013.5 1013.5 0.0
11/06:30pm 30.9 26.4 -3.0 11 15.5 WSW 11 17 6 9 1013.4 1013.4 0.0
11/06:00pm 31.5 27.1 -2.5 11 15.7 SW 11 17 6 9 1013.4 1013.4 0.0
11/05:30pm 31.7 27.3 -2.3 11 15.8 SSW 11 17 6 9 1013.4 1013.4 0.0
11/05:00pm 31.5 27.1 -2.5 11 15.7 WSW 11 19 6 10 1013.6 1013.6 0.0
11/04:30pm 32.1 26.5 -3.3 10 16.2 WSW 17 22 9 12 1014.0 1014.0 0.0
11/04:00pm 31.2 25.1 -2.7 11 15.6 WSW 20 28 11 15 1014.4 1014.4 0.0
11/03:30pm 31.3 24.9 -1.5 12 15.4 W 22 30 12 16 1014.7 1014.7 0.0
11/03:00pm 31.9 26.0 -1.0 12 15.6 W 20 30 11 16 1015.1 1015.1 0.0
11/02:30pm 31.1 25.8 -0.5 13 15.1 N 17 24 9 13 1015.3 1015.3 0.0
11/02:00pm 30.2 26.7 -1.2 13 14.7 SSW 7 17 4 9 1015.8 1015.8 0.0
11/01:30pm 31.0 25.3 -0.6 13 15.0 NE 19 28 10 15 1016.2 1016.2 0.0
11/01:00pm 30.3 25.7 1.7 16 14.1 NNE 15 30 8 16 1016.8 1016.8 0.0
11/12:30pm 29.0 23.9 0.7 16 13.6 NNE 17 26 9 14 1017.3 1017.3 0.0
11/12:00pm 28.4 23.3 1.0 17 13.1 NNE 17 24 9 13 1017.8 1017.8 0.0
11/11:30am 28.2 23.4 2.4 19 12.7 N 17 24 9 13 1018.1 1018.1 0.0
11/11:00am 27.0 22.5 2.1 20 12.1 NNE 15 26 8 14 1018.3 1018.3 0.0
11/10:30am 25.9 21.7 3.8 24 10.9 NE 15 24 8 13 1018.4 1018.4 0.0
11/10:00am 24.5 19.7 4.8 28 9.9 NE 19 28 10 15 1018.5 1018.5 0.0
11/09:30am 24.1 19.4 5.0 29 9.6 NE 19 26 10 14 1018.9 1018.9 0.0
11/09:00am 22.6 18.2 4.6 31 8.8 NE 17 26 9 14 1019.0 1019.0 0.0
11/08:30am 20.3 17.0 6.3 40 7.0 ENE 13 20 7 11 1019.1 1019.1 0.0
11/08:00am 17.7 16.3 7.4 51 5.2 NW 4 7 2 4 1019.3 1019.3 0.0
11/07:30am 16.3 14.7 8.8 61 3.8 W 7 9 4 5 1019.6 1019.6 0.0
11/07:00am 14.9 13.8 8.6 66 3.2 WNW 4 9 2 5 1019.5 1019.5 0.0
11/06:30am 14.1 12.0 8.1 67 3.0 ENE 9 13 5 7 1019.0 1019.0 0.0
11/06:00am 13.6 11.1 8.2 70 2.7 ENE 11 17 6 9 1018.5 1018.5 0.0
11/05:30am 13.5 10.9 7.7 68 2.8 E 11 17 6 9 1018.3 1018.3 0.0
11/05:00am 13.3 10.6 7.5 68 2.8 E 11 17 6 9 1018.0 1018.0 0.0
11/04:30am 13.2 11.4 7.2 67 2.9 ENE 6 11 3 6 1018.2 1018.2 0.0
11/04:00am 12.5 10.9 7.8 73 2.3 NNW 6 7 3 4 1018.4 1018.4 0.0
11/03:30am 13.6 11.6 8.7 72 2.5 ESE 9 13 5 7 1018.4 1018.4 0.0
11/03:00am 13.1 11.1 8.6 74 2.2 ESE 9 13 5 7 1018.4 1018.4 0.0
11/02:30am 12.4 10.3 6.5 67 2.8 E 7 11 4 6 1018.6 1018.6 0.0
11/02:00am 14.3 12.4 6.6 60 3.7 N 6 17 3 9 1018.8 1018.8 0.0
11/01:30am 14.0 12.2 7.1 63 3.4 NNW 6 7 3 4 1018.9 1018.9 0.0
11/01:00am 15.0 13.2 7.1 59 3.9 E 6 11 3 6 1018.7 1018.7 0.0
11/12:30am 15.5 12.2 6.5 55 4.4 E 13 17 7 9 1018.5 1018.5 0.0
11/12:00am 16.0 11.6 7.5 57 4.2 ESE 20 26 11 14 1018.8 1018.8 0.0
 
Date/Time
CDT
Temp
°C
App
Temp
°C
Dew
Point
°C
Rel
Hum
%
Delta-T
°C
Wind Press
QNH
hPa
Press
MSL
hPa
Rain since
9am
mm
Dir  Spd
km/h
Gust
km/h
Spd
kts
Gust
kts
10/11:30pm 16.1 12.1 6.8 54 4.6 ESE 17 24 9 13 1018.8 1018.8 0.0
10/11:00pm 15.8 13.5 7.6 58 4.1 E 9 17 5 9 1018.9 1018.9 0.0
10/10:30pm 16.6 13.3 8.1 57 4.3 ESE 15 19 8 10 1019.4 1019.4 0.0
10/10:00pm 17.0 14.5 8.2 56 4.5 SE 11 17 6 9 1019.3 1019.3 0.0
10/09:30pm 18.3 14.9 7.7 50 5.4 SE 15 20 8 11 1018.7 1018.7 0.0
10/09:00pm 18.4 14.2 1.9 33 7.5 S 13 17 7 9 1018.1 1018.1 0.0
10/08:30pm 19.6 14.9 2.9 33 7.8 SSW 17 20 9 11 1017.8 1017.8 0.0
10/08:00pm 19.8 14.6 2.6 32 8.0 SSW 19 26 10 14 1017.5 1017.5 0.0
10/07:30pm 20.8 15.4 1.1 27 8.9 SSW 19 24 10 13 1017.4 1017.4 0.0
10/07:00pm 22.6 16.4 -0.2 22 10.2 SW 22 30 12 16 1017.3 1017.3 0.0
10/06:30pm 24.4 18.9 0.7 21 11.0 SW 19 24 10 13 1017.1 1017.1 0.0
10/06:00pm 25.0 19.3 0.5 20 11.4 SW 20 33 11 18 1017.1 1017.1 0.0
10/05:30pm 24.9 18.8 -3.5 15 12.2 SW 19 30 10 16 1017.1 1017.1 0.0
10/05:00pm 25.9 21.1 -5.6 12 13.2 SW 11 17 6 9 1017.1 1017.1 0.0
10/04:30pm 26.1 20.7 -4.4 13 13.0 SW 15 24 8 13 1017.3 1017.3 0.0
10/04:00pm 26.1 20.4 -3.5 14 12.9 SW 17 28 9 15 1017.4 1017.4 0.0
10/03:30pm 26.0 19.9 -2.6 15 12.6 SW 20 30 11 16 1017.6 1017.6 0.0
10/03:00pm 25.7 19.5 -2.8 15 12.5 WSW 20 33 11 18 1017.8 1017.8 0.0
10/02:30pm 25.5 20.2 -0.5 18 11.9 SW 17 26 9 14 1017.8 1017.8 0.0
10/02:00pm 25.1 19.5 -0.1 19 11.6 WSW 19 32 10 17 1018.0 1018.0 0.0
10/01:30pm 25.6 20.7 -0.5 18 11.9 WSW 15 26 8 14 1018.1 1018.1 0.0
10/01:00pm 24.8 19.9 -0.4 19 11.5 W 15 20 8 11 1018.4 1018.4 0.0
10/12:30pm 24.6 19.7 -0.5 19 11.4 WSW 15 20 8 11 1018.7 1018.7 0.0
10/12:00pm 23.9 18.2 -3.4 16 11.6 WSW 17 26 9 14 1019.2 1019.2 0.0
10/11:30am 23.0 19.3 2.5 26 9.7 WSW 11 17 6 9 1019.8 1019.8 0.0
10/11:00am 22.0 18.8 3.2 29 9.0 WSW 9 17 5 9 1020.0 1020.0 0.0
10/10:30am 21.6 18.5 3.8 31 8.6 NNW 9 13 5 7 1020.1 1020.1 0.0
10/10:00am 21.0 18.7 5.8 37 7.6 S 7 11 4 6 1020.2 1020.2 0.0
10/09:30am 19.8 17.5 5.8 40 6.9 N 7 11 4 6 1020.2 1020.2 0.0
10/09:00am 19.2 17.4 5.3 40 6.8 ESE 4 7 2 4 1020.1 1020.1 0.0
10/08:30am 17.5 17.1 8.4 55 4.7 CALM 0 6 0 3 1020.0 1020.0 0.0
10/08:00am 15.1 14.9 9.2 68 3.0 CALM 0 0 0 0 1019.9 1019.9 0.0
10/07:30am 12.5 12.7 10.7 89 0.9 CALM 0 0 0 0 1019.7 1019.7 0.0
10/07:00am 10.6 10.1 10.6 100 0.0 N 4 7 2 4 1019.4 1019.4 0.0

Other Formats:

Comma delimited format used in spreadsheet applications
http://www.bom.gov.au/fwo/IDS60801/IDS60801.95677.axf

JavaScript Object Notation format (JSON) in row-major order
http://www.bom.gov.au/fwo/IDS60801/IDS60801.95677.json